createdAt,value
2022-12-04T00:01:20.324Z,101155.59
2022-12-04T00:03:49.999Z,101150.44
2022-12-04T00:06:18.926Z,101142.47
2022-12-04T00:08:47.586Z,101151.75
2022-12-04T00:11:17.730Z,101138.72
2022-12-04T00:13:45.141Z,101140.81
2022-12-04T00:16:18.273Z,101132.84
2022-12-04T00:18:45.190Z,101130.19
2022-12-04T00:21:13.812Z,101126.41
2022-12-04T00:23:42.072Z,101133.75
2022-12-04T00:26:14.514Z,101123.97
2022-12-04T00:28:42.140Z,101125.38
2022-12-04T00:31:12.187Z,101121.75
2022-12-04T00:33:39.683Z,101127.34
2022-12-04T00:36:10.003Z,101124.16
2022-12-04T00:38:37.915Z,101129.47
2022-12-04T00:41:05.151Z,101136.78
2022-12-04T00:43:32.222Z,101136.31
2022-12-04T00:45:59.479Z,101124.69
2022-12-04T00:48:26.387Z,101125.25
2022-12-04T00:50:54.138Z,101130.97
2022-12-04T00:53:21.687Z,101125.09
2022-12-04T00:55:48.224Z,101128.53
2022-12-04T00:58:14.763Z,101124.91
2022-12-04T01:00:42.504Z,101111.44
2022-12-04T01:03:09.784Z,101115.81
2022-12-04T01:05:41.090Z,101121.00
2022-12-04T01:08:08.601Z,101125.22
2022-12-04T01:10:38.760Z,101115.97
2022-12-04T01:13:05.682Z,101120.44
2022-12-04T01:15:32.418Z,101116.97
2022-12-04T01:17:58.983Z,101120.16
2022-12-04T01:20:25.586Z,101120.59
2022-12-04T01:22:52.126Z,101123.03
2022-12-04T01:25:18.758Z,101121.38
2022-12-04T01:27:45.274Z,101127.44
2022-12-04T01:30:12.971Z,101130.97
2022-12-04T01:32:39.481Z,101121.28
2022-12-04T01:35:06.580Z,101124.22
2022-12-04T01:37:33.465Z,101131.38
2022-12-04T01:40:00.132Z,101126.75
2022-12-04T01:42:27.790Z,101125.41
2022-12-04T01:45:32.154Z,101126.72
2022-12-04T01:48:10.883Z,101120.34
2022-12-04T01:50:37.782Z,101115.06
2022-12-04T01:53:04.761Z,101110.63
2022-12-04T01:55:31.727Z,101106.88
2022-12-04T01:57:59.052Z,101101.84
2022-12-04T02:00:25.667Z,101097.81
2022-12-04T02:02:52.373Z,101099.13
2022-12-04T02:05:23.112Z,101094.06
2022-12-04T02:07:52.437Z,101093.16
2022-12-04T02:10:24.519Z,101097.19
2022-12-04T02:12:58.267Z,101086.22
2022-12-04T02:15:34.924Z,101085.97
2022-12-04T02:18:14.609Z,101086.88
2022-12-04T02:21:16.764Z,101082.97
2022-12-04T02:23:58.501Z,101085.09
2022-12-04T02:26:49.085Z,101088.22
2022-12-04T02:29:21.720Z,101094.72
2022-12-04T02:32:00.814Z,101088.69
2022-12-04T02:34:41.648Z,101091.97
2022-12-04T02:37:34.473Z,101086.50
2022-12-04T02:40:08.269Z,101085.59
2022-12-04T02:42:41.758Z,101089.38
2022-12-04T02:45:12.576Z,101097.81
2022-12-04T02:47:41.627Z,101087.78
2022-12-04T02:50:18.357Z,101091.06
2022-12-04T02:53:14.067Z,101089.38
2022-12-04T02:55:49.779Z,101091.19
2022-12-04T02:58:24.564Z,101085.19
2022-12-04T03:00:53.790Z,101078.50
2022-12-04T03:03:26.854Z,101085.41
2022-12-04T03:06:04.685Z,101083.59
2022-12-04T03:08:41.368Z,101077.94
2022-12-04T03:11:08.012Z,101079.78
2022-12-04T03:13:56.813Z,101081.28
2022-12-04T03:16:31.300Z,101075.88
2022-12-04T03:19:07.815Z,101084.19
2022-12-04T03:21:38.318Z,101092.00
2022-12-04T03:24:13.100Z,101085.50
2022-12-04T03:26:50.949Z,101083.19
2022-12-04T03:29:33.519Z,101075.16
2022-12-04T03:32:27.567Z,101079.66
2022-12-04T03:35:01.712Z,101070.25
2022-12-04T03:37:39.289Z,101075.81
2022-12-04T03:40:28.688Z,101084.03
2022-12-04T03:43:06.092Z,101086.81
2022-12-04T03:45:47.208Z,101082.72
2022-12-04T03:48:23.379Z,101082.56
2022-12-04T03:50:59.693Z,101070.47
2022-12-04T03:53:38.940Z,101075.50
2022-12-04T03:56:11.748Z,101078.75
2022-12-04T03:58:44.725Z,101082.25
2022-12-04T04:01:14.059Z,101069.41
2022-12-04T04:03:46.428Z,101068.34
2022-12-04T04:06:18.796Z,101067.69
2022-12-04T04:08:50.791Z,101065.47
2022-12-04T04:11:27.691Z,101067.84
2022-12-04T04:14:35.104Z,101067.22
2022-12-04T04:17:28.078Z,101060.28
2022-12-04T04:20:22.036Z,101064.03
2022-12-04T04:23:11.889Z,101066.81
2022-12-04T04:25:41.342Z,101060.38
2022-12-04T04:28:31.213Z,101060.47
2022-12-04T04:31:07.410Z,101068.66
2022-12-04T04:33:39.421Z,101072.41
2022-12-04T04:36:18.170Z,101074.19
2022-12-04T04:39:00.810Z,101078.59
2022-12-04T04:41:52.022Z,101071.13
2022-12-04T04:44:21.192Z,101073.25
2022-12-04T04:46:52.779Z,101066.63
2022-12-04T04:49:24.568Z,101073.72
2022-12-04T04:51:51.370Z,101077.25
2022-12-04T04:54:19.621Z,101079.06
2022-12-04T04:56:47.396Z,101080.34
2022-12-04T04:59:14.560Z,101078.38
2022-12-04T05:01:45.036Z,101089.03
2022-12-04T05:04:11.773Z,101083.53
2022-12-04T05:06:38.370Z,101084.84
2022-12-04T05:09:04.977Z,101081.41
2022-12-04T05:11:31.692Z,101089.06
2022-12-04T05:13:58.681Z,101084.44
2022-12-04T05:16:25.314Z,101088.47
2022-12-04T05:19:11.595Z,101094.78
2022-12-04T05:21:38.416Z,101092.88
2022-12-04T05:24:05.433Z,101101.19
2022-12-04T05:26:32.289Z,101100.72
2022-12-04T05:28:58.805Z,101101.59
2022-12-04T05:31:25.519Z,101105.47
2022-12-04T05:33:53.216Z,101097.66
2022-12-04T05:36:20.133Z,101100.53
2022-12-04T05:38:47.003Z,101101.75
2022-12-04T05:41:13.509Z,101087.56
2022-12-04T05:43:40.110Z,101096.53
2022-12-04T05:46:08.720Z,101101.09
2022-12-04T05:48:35.708Z,101095.50
2022-12-04T05:51:10.001Z,101094.56
2022-12-04T05:53:37.968Z,101092.97
2022-12-04T05:56:05.918Z,101094.38
2022-12-04T05:58:36.138Z,101086.03
2022-12-04T06:01:17.267Z,101098.59
2022-12-04T06:03:44.477Z,101096.13
2022-12-04T06:06:23.426Z,101101.13
2022-12-04T06:08:52.886Z,101101.34
2022-12-04T06:11:22.485Z,101099.56
2022-12-04T06:13:49.811Z,101091.13
2022-12-04T06:16:22.660Z,101091.00
2022-12-04T06:18:57.821Z,101092.69
2022-12-04T06:21:26.326Z,101098.22
2022-12-04T06:23:54.237Z,101097.34
2022-12-04T06:26:22.036Z,101098.63
2022-12-04T06:28:49.083Z,101104.91
2022-12-04T06:31:16.900Z,101104.25
2022-12-04T06:33:43.779Z,101107.78
2022-12-04T06:36:16.296Z,101110.16
2022-12-04T06:38:42.953Z,101114.56
2022-12-04T06:41:12.644Z,101114.47
2022-12-04T06:43:40.233Z,101119.22
2022-12-04T06:46:10.727Z,101116.41
2022-12-04T06:48:37.668Z,101116.59
2022-12-04T06:51:18.157Z,101131.66
2022-12-04T06:53:45.285Z,101125.22
2022-12-04T06:56:16.160Z,101130.06
2022-12-04T06:58:42.671Z,101119.38
2022-12-04T07:01:11.943Z,101124.81
2022-12-04T07:03:39.252Z,101124.09
2022-12-04T07:06:17.836Z,101120.84
2022-12-04T07:08:46.501Z,101123.66
2022-12-04T07:11:14.306Z,101129.06
2022-12-04T07:13:41.607Z,101135.84
2022-12-04T07:16:12.467Z,101132.69
2022-12-04T07:18:39.012Z,101132.56
2022-12-04T07:21:07.663Z,101134.03
2022-12-04T07:23:34.666Z,101138.13
2022-12-04T07:26:08.755Z,101128.16
2022-12-04T07:28:36.177Z,101129.25
2022-12-04T07:31:07.623Z,101130.59
2022-12-04T07:33:36.008Z,101128.66
2022-12-04T07:36:05.745Z,101127.03
2022-12-04T07:38:34.750Z,101131.53
2022-12-04T07:41:03.973Z,101135.75
2022-12-04T07:43:31.797Z,101135.69
2022-12-04T07:45:59.756Z,101132.88
2022-12-04T07:48:31.665Z,101130.56
2022-12-04T07:51:07.865Z,101142.75
2022-12-04T07:53:35.300Z,101129.19
2022-12-04T07:56:02.765Z,101132.84
2022-12-04T07:58:29.749Z,101132.31
2022-12-04T08:01:13.699Z,101133.34
2022-12-04T08:03:47.195Z,101121.56
2022-12-04T08:06:14.881Z,101117.38
2022-12-04T08:08:41.503Z,101105.13
2022-12-04T08:11:11.078Z,101113.63
2022-12-04T08:13:37.596Z,101110.34
2022-12-04T08:16:07.001Z,101108.16
2022-12-04T08:18:33.710Z,101111.47
2022-12-04T08:21:05.742Z,101117.63
2022-12-04T08:23:33.142Z,101117.91
2022-12-04T08:26:00.858Z,101116.19
2022-12-04T08:28:28.160Z,101106.88
2022-12-04T08:30:55.148Z,101107.19
2022-12-04T08:33:21.815Z,101112.59
2022-12-04T08:35:48.364Z,101111.78
2022-12-04T08:38:14.903Z,101109.75
2022-12-04T08:40:41.521Z,101109.13
2022-12-04T08:43:08.289Z,101108.78
2022-12-04T08:45:34.810Z,101107.63
2022-12-04T08:48:02.113Z,101100.00
2022-12-04T08:50:28.913Z,101104.16
2022-12-04T08:52:55.469Z,101114.47
2022-12-04T08:55:22.803Z,101127.81
2022-12-04T08:57:52.469Z,101117.19
2022-12-04T09:00:19.827Z,101121.09
2022-12-04T09:02:49.797Z,101115.88
2022-12-04T09:05:17.711Z,101118.38
2022-12-04T09:07:44.732Z,101114.47
2022-12-04T09:10:12.314Z,101110.72
2022-12-04T09:12:39.117Z,101121.03
2022-12-04T09:15:06.577Z,101119.03
2022-12-04T09:17:34.516Z,101125.22
2022-12-04T09:20:01.694Z,101126.25
2022-12-04T09:22:45.480Z,101126.59
2022-12-04T09:25:15.160Z,101125.81
2022-12-04T09:27:41.885Z,101131.44
2022-12-04T09:30:10.668Z,101134.41
2022-12-04T09:32:37.714Z,101130.53
2022-12-04T09:35:05.593Z,101137.13
2022-12-04T09:37:33.143Z,101125.31
2022-12-04T09:39:59.708Z,101130.28
2022-12-04T09:42:48.591Z,101124.47
2022-12-04T09:45:20.398Z,101124.25
2022-12-04T09:47:50.338Z,101119.03
2022-12-04T09:50:23.037Z,101110.31
2022-12-04T09:53:03.329Z,101110.50
2022-12-04T09:55:41.102Z,101111.66
2022-12-04T09:58:14.088Z,101100.75
2022-12-04T10:00:44.761Z,101105.66
2022-12-04T10:03:17.420Z,101110.91
2022-12-04T10:06:14.731Z,101102.63
2022-12-04T10:08:49.771Z,101097.75
2022-12-04T10:11:26.526Z,101105.88
2022-12-04T10:14:02.072Z,101093.50
2022-12-04T10:16:45.908Z,101102.03
2022-12-04T10:19:18.524Z,101092.00
2022-12-04T10:22:22.597Z,101099.22
2022-12-04T10:24:56.633Z,101101.34
2022-12-04T10:27:29.543Z,101095.38
2022-12-04T10:30:00.865Z,101089.53
2022-12-04T10:32:31.693Z,101089.13
2022-12-04T10:35:08.856Z,101097.97
2022-12-04T10:37:40.991Z,101094.88
2022-12-04T10:40:22.058Z,101095.84
2022-12-04T10:43:06.457Z,101093.06
2022-12-04T10:45:33.014Z,101090.84
2022-12-04T10:48:00.199Z,101091.66
2022-12-04T10:50:26.875Z,101089.38
2022-12-04T10:52:53.447Z,101089.47
2022-12-04T10:55:33.169Z,101075.88
2022-12-04T10:57:59.773Z,101077.88
2022-12-04T11:00:34.697Z,101074.84
2022-12-04T11:03:04.622Z,101072.16
2022-12-04T11:05:55.422Z,101067.88
2022-12-04T11:08:30.582Z,101071.19
2022-12-04T11:11:00.916Z,101070.31
2022-12-04T11:13:27.553Z,101067.19
2022-12-04T11:15:58.133Z,101072.84
2022-12-04T11:18:27.893Z,101071.72
2022-12-04T11:20:56.392Z,101066.28
2022-12-04T11:23:24.747Z,101059.97
2022-12-04T11:25:54.596Z,101064.16
2022-12-04T11:28:44.544Z,101057.38
2022-12-04T11:31:20.052Z,101063.50
2022-12-04T11:33:50.539Z,101050.75
2022-12-04T11:36:51.955Z,101048.13
2022-12-04T11:39:26.838Z,101045.47
2022-12-04T11:42:17.208Z,101045.91
2022-12-04T11:45:02.039Z,101051.69
2022-12-04T11:47:31.473Z,101041.53
2022-12-04T11:50:01.592Z,101035.09
2022-12-04T11:52:35.795Z,101040.97
2022-12-04T11:55:15.676Z,101031.72
2022-12-04T11:58:14.452Z,101033.50
2022-12-04T12:00:55.025Z,101017.13
2022-12-04T12:03:38.341Z,101015.78
2022-12-04T12:06:29.776Z,101023.16
2022-12-04T12:09:08.269Z,101024.25
2022-12-04T12:11:40.113Z,101024.13
2022-12-04T12:14:24.199Z,101008.66
2022-12-04T12:17:08.701Z,101005.53
2022-12-04T12:20:11.013Z,101011.63
2022-12-04T12:23:08.352Z,101008.91
2022-12-04T12:26:13.561Z,101005.50
2022-12-04T12:29:08.848Z,101003.41
2022-12-04T12:31:51.100Z,101001.00
2022-12-04T12:34:36.005Z,100996.50
2022-12-04T12:37:15.836Z,100989.03
2022-12-04T12:39:56.688Z,100994.34
2022-12-04T12:42:31.268Z,101002.81
2022-12-04T12:45:04.488Z,100993.84
2022-12-04T12:47:38.620Z,100989.03
2022-12-04T12:50:49.379Z,100989.44
2022-12-04T12:53:22.929Z,100991.94
2022-12-04T12:56:01.926Z,100986.66
2022-12-04T12:58:38.381Z,100976.09
2022-12-04T13:01:13.169Z,100977.00
2022-12-04T13:04:04.918Z,100988.22
2022-12-04T13:07:14.650Z,100988.97
2022-12-04T13:09:48.288Z,100983.75
2022-12-04T13:12:16.743Z,100986.69
2022-12-04T13:14:48.653Z,100996.00
2022-12-04T13:17:35.564Z,101001.34
2022-12-04T13:20:10.172Z,100998.38
2022-12-04T13:23:10.828Z,100989.69
2022-12-04T13:25:56.636Z,100995.94
2022-12-04T13:28:49.896Z,100991.75
2022-12-04T13:32:02.834Z,100991.31
2022-12-04T13:34:46.858Z,100995.78
2022-12-04T13:37:59.792Z,100982.63
2022-12-04T13:40:38.644Z,100976.25
2022-12-04T13:43:23.869Z,100975.13
2022-12-04T13:45:53.070Z,100986.59
2022-12-04T13:48:31.800Z,100981.00
2022-12-04T13:51:08.358Z,100980.72
2022-12-04T13:53:38.031Z,100971.94
2022-12-04T13:56:09.413Z,100978.13
2022-12-04T13:58:38.283Z,100990.06
2022-12-04T14:01:28.386Z,100981.69
2022-12-04T14:03:57.331Z,100977.38
2022-12-04T14:06:36.427Z,100965.47
2022-12-04T14:09:07.600Z,100968.13
2022-12-04T14:11:45.085Z,100972.38
2022-12-04T14:14:26.576Z,100971.63
2022-12-04T14:16:54.116Z,100962.91
2022-12-04T14:19:36.679Z,100958.56
2022-12-04T14:22:03.751Z,100952.75
2022-12-04T14:24:40.243Z,100950.25
2022-12-04T14:27:31.728Z,100963.84
2022-12-04T14:29:59.832Z,100955.81
2022-12-04T14:32:30.857Z,100962.53
2022-12-04T14:34:57.934Z,100959.97
2022-12-04T14:37:53.196Z,100950.66
2022-12-04T14:40:24.686Z,100956.22
2022-12-04T14:42:52.285Z,100951.00
2022-12-04T14:45:25.922Z,100950.06
2022-12-04T14:47:52.636Z,100950.06
2022-12-04T14:50:44.307Z,100953.69
2022-12-04T14:53:29.684Z,100947.69
2022-12-04T14:56:23.329Z,100937.09
2022-12-04T14:58:51.131Z,100938.41
2022-12-04T15:01:29.720Z,100941.78
2022-12-04T15:04:02.043Z,100947.25
2022-12-04T15:06:31.508Z,100946.69
2022-12-04T15:09:23.445Z,100953.19
2022-12-04T15:12:14.049Z,100952.16
2022-12-04T15:14:46.307Z,100943.47
2022-12-04T15:17:15.504Z,100943.03
2022-12-04T15:19:42.660Z,100943.44
2022-12-04T15:22:19.465Z,100949.41
2022-12-04T15:24:46.442Z,100944.03
2022-12-04T15:27:15.108Z,100945.66
2022-12-04T15:29:48.294Z,100950.03
2022-12-04T15:32:17.562Z,100945.38
2022-12-04T15:34:48.947Z,100955.22
2022-12-04T15:37:22.400Z,100948.47
2022-12-04T15:39:52.357Z,100948.09
2022-12-04T15:42:22.202Z,100955.00
2022-12-04T15:44:53.188Z,100948.81
2022-12-04T15:47:25.348Z,100948.91
2022-12-04T15:49:52.039Z,100944.91
2022-12-04T15:52:20.121Z,100950.22
2022-12-04T15:54:56.489Z,100953.41
2022-12-04T15:57:31.165Z,100951.09
2022-12-04T16:00:05.090Z,100943.22
2022-12-04T16:02:39.597Z,100956.44
2022-12-04T16:05:21.219Z,100954.50
2022-12-04T16:07:59.723Z,100961.63
2022-12-04T16:10:33.484Z,100964.69
2022-12-04T16:13:03.263Z,100960.06
2022-12-04T16:15:39.549Z,100963.63
2022-12-04T16:18:07.737Z,100956.59
2022-12-04T16:20:36.021Z,100970.59
2022-12-04T16:23:03.658Z,100975.09
2022-12-04T16:25:31.523Z,100965.44
2022-12-04T16:27:59.221Z,100972.75
2022-12-04T16:30:28.251Z,100986.06
2022-12-04T16:32:54.901Z,100986.84
2022-12-04T16:35:22.365Z,100988.56
2022-12-04T16:37:48.879Z,100993.94
2022-12-04T16:40:16.260Z,100985.09
2022-12-04T16:42:43.509Z,100980.19
2022-12-04T16:45:28.275Z,100986.38
2022-12-04T16:47:57.895Z,100972.00
2022-12-04T16:50:26.444Z,100985.31
2022-12-04T16:52:53.493Z,100983.47
2022-12-04T16:55:38.379Z,100986.28
2022-12-04T16:58:06.011Z,100983.50
2022-12-04T17:00:33.421Z,100989.84
2022-12-04T17:03:04.025Z,100989.31
2022-12-04T17:05:33.403Z,100983.31
2022-12-04T17:08:00.733Z,100992.28
2022-12-04T17:10:29.343Z,100995.69
2022-12-04T17:12:56.034Z,100986.22
2022-12-04T17:15:22.868Z,100999.25
2022-12-04T17:17:49.844Z,100998.19
2022-12-04T17:20:18.965Z,100997.94
2022-12-04T17:22:46.293Z,100994.19
2022-12-04T17:25:13.932Z,101003.44
2022-12-04T17:27:40.621Z,101000.53
2022-12-04T17:30:08.514Z,101008.03
2022-12-04T17:32:35.236Z,101003.34
2022-12-04T17:35:02.957Z,101008.88
2022-12-04T17:37:31.628Z,101010.25
2022-12-04T17:39:58.583Z,101007.78
2022-12-04T17:42:25.200Z,101018.50
2022-12-04T17:44:51.728Z,101018.28
2022-12-04T17:47:18.838Z,101014.16
2022-12-04T17:49:45.390Z,101005.31
2022-12-04T17:52:12.108Z,101015.88
2022-12-04T17:54:38.643Z,101013.06
2022-12-04T17:57:06.092Z,101009.81
2022-12-04T17:59:32.634Z,101005.94
2022-12-04T18:01:59.185Z,100999.78
2022-12-04T18:04:25.820Z,101005.84
2022-12-04T18:06:52.645Z,100998.66
2022-12-04T18:09:19.497Z,101004.28
2022-12-04T18:11:47.666Z,100993.38
2022-12-04T18:14:18.399Z,100995.19
2022-12-04T18:16:51.925Z,100994.59
2022-12-04T18:19:21.246Z,101001.63
2022-12-04T18:21:48.151Z,101001.75
2022-12-04T18:24:15.272Z,100999.25
2022-12-04T18:26:45.955Z,100998.19
2022-12-04T18:29:15.207Z,100997.94
2022-12-04T18:31:42.655Z,101000.13
2022-12-04T18:34:09.589Z,100987.84
2022-12-04T18:36:38.813Z,100996.53
2022-12-04T18:39:08.888Z,100991.44
2022-12-04T18:41:35.482Z,100988.88
2022-12-04T18:44:03.166Z,100987.78
2022-12-04T18:46:30.302Z,100983.94
2022-12-04T18:49:01.368Z,100987.31
2022-12-04T18:51:47.003Z,100986.81
2022-12-04T18:54:18.659Z,100985.31
2022-12-04T18:56:46.064Z,100984.19
2022-12-04T18:59:23.906Z,100995.28
2022-12-04T19:01:51.705Z,100993.72
2022-12-04T19:04:20.302Z,100995.72
2022-12-04T19:06:52.015Z,100989.78
2022-12-04T19:09:47.341Z,100997.28
2022-12-04T19:12:12.870Z,100999.50
2022-12-04T19:14:39.836Z,100989.13
2022-12-04T19:17:06.921Z,100986.78
2022-12-04T19:19:34.347Z,100995.13
2022-12-04T19:22:02.126Z,100998.66
2022-12-04T19:24:28.842Z,100992.84
2022-12-04T19:26:55.640Z,100988.41
2022-12-04T19:32:11.491Z,100987.22
2022-12-04T19:34:38.199Z,100990.84
2022-12-04T19:37:04.832Z,100987.00
2022-12-04T19:39:31.456Z,100990.53
2022-12-04T19:41:58.359Z,100985.81
2022-12-04T19:44:48.000Z,100982.09
2022-12-04T19:47:12.040Z,100977.47
2022-12-04T19:49:38.579Z,100981.28
2022-12-04T19:52:06.529Z,100982.63
2022-12-04T19:54:33.049Z,100981.06
2022-12-04T19:56:59.912Z,100968.41
2022-12-04T19:59:29.447Z,100973.75
2022-12-04T20:01:58.500Z,100966.16
2022-12-04T20:04:25.392Z,100965.06
2022-12-04T20:06:53.064Z,100966.06
2022-12-04T20:09:21.847Z,100966.44
2022-12-04T20:11:49.063Z,100970.59
2022-12-04T20:14:15.841Z,100965.72
2022-12-04T20:16:42.960Z,100967.50
2022-12-04T20:19:14.260Z,100959.91
2022-12-04T20:21:41.253Z,100965.13
2022-12-04T20:24:08.193Z,100966.25
2022-12-04T20:26:39.973Z,100968.78
2022-12-04T20:29:10.121Z,100972.59
2022-12-04T20:31:38.899Z,100977.97
2022-12-04T20:34:12.972Z,100963.38
2022-12-04T20:36:42.959Z,100958.63
2022-12-04T20:39:11.506Z,100974.31
2022-12-04T20:41:38.757Z,100962.28
2022-12-04T20:44:07.612Z,100959.47
2022-12-04T20:46:37.195Z,100964.06
2022-12-04T20:49:06.792Z,100958.81
2022-12-04T20:51:37.933Z,100956.13
2022-12-04T20:54:05.582Z,100966.16
2022-12-04T20:56:35.851Z,100959.94
2022-12-04T20:59:05.836Z,100956.75
2022-12-04T21:01:33.598Z,100956.31
2022-12-04T21:04:02.010Z,100952.66
2022-12-04T21:06:36.169Z,100958.22
2022-12-04T21:09:06.524Z,100948.34
2022-12-04T21:11:40.413Z,100962.47
2022-12-04T21:14:30.095Z,100961.09
2022-12-04T21:16:57.481Z,100957.00
2022-12-04T21:19:24.357Z,100953.53
2022-12-04T21:21:51.427Z,100951.97
2022-12-04T21:24:20.730Z,100952.25
2022-12-04T21:26:48.749Z,100953.50
2022-12-04T21:29:16.110Z,100962.00
2022-12-04T21:31:43.058Z,100960.28
2022-12-04T21:34:11.848Z,100950.56
2022-12-04T21:36:38.766Z,100947.97
2022-12-04T21:39:05.737Z,100951.00
2022-12-04T21:41:51.261Z,100956.25
2022-12-04T21:44:20.448Z,100948.78
2022-12-04T21:46:47.723Z,100957.72
2022-12-04T21:49:15.503Z,100953.34
2022-12-04T21:51:58.956Z,100950.81
2022-12-04T21:54:30.167Z,100950.34
2022-12-04T21:56:57.338Z,100954.47
2022-12-04T21:59:25.572Z,100950.91
2022-12-04T22:01:53.401Z,100957.84
2022-12-04T22:04:21.087Z,100953.47
2022-12-04T22:06:47.650Z,100952.66
2022-12-04T22:09:14.468Z,100956.56
2022-12-04T22:11:42.028Z,100945.31
2022-12-04T22:14:10.386Z,100957.44
2022-12-04T22:16:41.950Z,100952.47
2022-12-04T22:19:09.097Z,100947.34
2022-12-04T22:21:36.168Z,100953.78
2022-12-04T22:24:03.629Z,100946.19
2022-12-04T22:26:31.455Z,100945.06
2022-12-04T22:28:58.372Z,100944.47
2022-12-04T22:31:27.286Z,100940.75
2022-12-04T22:33:56.049Z,100939.97
2022-12-04T22:36:25.624Z,100939.97
2022-12-04T22:41:39.701Z,100939.88
2022-12-04T22:44:06.327Z,100937.66
2022-12-04T22:46:33.863Z,100934.53
2022-12-04T22:49:00.584Z,100930.69
2022-12-04T22:51:27.879Z,100935.84
2022-12-04T22:53:57.982Z,100924.97
2022-12-04T22:56:31.367Z,100930.03
2022-12-04T22:58:59.545Z,100928.28
2022-12-04T23:01:31.540Z,100924.97
2022-12-04T23:03:58.973Z,100919.50
2022-12-04T23:06:29.874Z,100922.00
2022-12-04T23:09:03.508Z,100913.81
2022-12-04T23:11:30.799Z,100910.41
2022-12-04T23:14:00.470Z,100912.72
2022-12-04T23:16:29.979Z,100911.34
2022-12-04T23:18:57.232Z,100915.88
2022-12-04T23:21:24.815Z,100907.06
2022-12-04T23:23:53.499Z,100914.81
2022-12-04T23:26:26.230Z,100910.84
2022-12-04T23:28:52.939Z,100911.25
2022-12-04T23:31:20.054Z,100907.69
2022-12-04T23:33:47.082Z,100910.41
2022-12-04T23:36:14.441Z,100913.78
2022-12-04T23:38:43.103Z,100918.34
2022-12-04T23:41:27.442Z,100916.16
2022-12-04T23:43:54.688Z,100906.16
2022-12-04T23:46:24.912Z,100918.19
2022-12-04T23:48:51.834Z,100905.47
2022-12-04T23:51:20.049Z,100904.97
2022-12-04T23:53:47.809Z,100904.47
2022-12-04T23:56:21.519Z,100911.09
2022-12-04T23:58:49.980Z,100901.56
